TAF and METAR

Could not understand the following METAR

NCMG 251300Z AUTO 01003KT //// ////// 21/18 Q1009
No TAF available for Mangaia Island Airport